sensor_id;sensor_type;location;lat;lon;timestamp;pressure;altitude;pressure_sealevel;temperature;humidity
67545;BME280;54380;47.770;11.150;2022-09-09T20:43:17;94935.34;;;17.04;58.63
67545;BME280;54380;47.770;11.150;2022-09-09T20:46:00;94941.22;;;17.01;57.79
67545;BME280;54380;47.770;11.150;2022-09-09T20:48:31;94957.22;;;17.01;58.19
67545;BME280;54380;47.770;11.150;2022-09-09T20:51:01;94960.84;;;16.91;57.73
67545;BME280;54380;47.770;11.150;2022-09-09T20:53:28;94965.47;;;16.61;58.15
67545;BME280;54380;47.770;11.150;2022-09-09T20:55:58;94963.31;;;16.39;59.03
67545;BME280;54380;47.770;11.150;2022-09-09T20:58:27;94975.97;;;16.29;59.45
67545;BME280;54380;47.770;11.150;2022-09-09T21:00:59;94975.50;;;16.21;59.69
67545;BME280;54380;47.770;11.150;2022-09-09T21:03:27;94966.50;;;16.17;59.90
67545;BME280;54380;47.770;11.150;2022-09-09T21:05:55;94972.41;;;16.14;60.21
67545;BME280;54380;47.770;11.150;2022-09-09T21:08:24;94956.69;;;16.13;60.17
67545;BME280;54380;47.770;11.150;2022-09-09T21:10:51;94954.81;;;16.13;60.21
67545;BME280;54380;47.770;11.150;2022-09-09T21:13:17;94954.56;;;16.15;60.14
67545;BME280;54380;47.770;11.150;2022-09-09T21:15:46;94933.19;;;16.20;60.10
67545;BME280;54380;47.770;11.150;2022-09-09T21:18:13;94929.69;;;16.24;60.16
67545;BME280;54380;47.770;11.150;2022-09-09T21:20:40;94942.91;;;16.30;59.92
67545;BME280;54380;47.770;11.150;2022-09-09T21:23:10;94936.75;;;16.34;59.72
67545;BME280;54380;47.770;11.150;2022-09-09T21:25:38;94922.84;;;16.37;59.39
67545;BME280;54380;47.770;11.150;2022-09-09T21:28:05;94916.28;;;16.30;59.11
67545;BME280;54380;47.770;11.150;2022-09-09T21:30:32;94898.78;;;16.23;59.58
67545;BME280;54380;47.770;11.150;2022-09-09T21:33:10;94894.31;;;16.19;59.47
67545;BME280;54380;47.770;11.150;2022-09-09T21:35:38;94906.63;;;16.15;60.11
67545;BME280;54380;47.770;11.150;2022-09-09T21:38:05;94911.44;;;16.13;59.84
67545;BME280;54380;47.770;11.150;2022-09-09T21:40:35;94912.00;;;16.10;59.81
67545;BME280;54380;47.770;11.150;2022-09-09T21:43:03;94914.94;;;16.08;59.88
67545;BME280;54380;47.770;11.150;2022-09-09T21:45:33;94909.66;;;16.03;59.56
67545;BME280;54380;47.770;11.150;2022-09-09T21:48:01;94914.00;;;15.99;59.96
67545;BME280;54380;47.770;11.150;2022-09-09T21:50:29;94917.75;;;15.93;60.03
67545;BME280;54380;47.770;11.150;2022-09-09T21:52:55;94906.09;;;15.89;60.31
67545;BME280;54380;47.770;11.150;2022-09-09T21:55:22;94913.56;;;15.87;60.60
67545;BME280;54380;47.770;11.150;2022-09-09T21:57:49;94904.84;;;15.81;60.76
67545;BME280;54380;47.770;11.150;2022-09-09T22:00:17;94904.63;;;15.77;60.38
67545;BME280;54380;47.770;11.150;2022-09-09T22:02:44;94905.19;;;15.74;60.85
67545;BME280;54380;47.770;11.150;2022-09-09T22:05:10;94920.41;;;15.69;60.87
67545;BME280;54380;47.770;11.150;2022-09-09T22:07:40;94922.63;;;15.56;61.28
67545;BME280;54380;47.770;11.150;2022-09-09T22:10:08;94917.63;;;15.50;61.74
67545;BME280;54380;47.770;11.150;2022-09-09T22:12:35;94912.09;;;15.46;61.42
67545;BME280;54380;47.770;11.150;2022-09-09T22:15:03;94912.09;;;15.46;61.87
67545;BME280;54380;47.770;11.150;2022-09-09T22:17:30;94908.84;;;15.49;61.58
67545;BME280;54380;47.770;11.150;2022-09-09T22:19:57;94896.34;;;15.50;61.40
67545;BME280;54380;47.770;11.150;2022-09-09T22:22:24;94899.53;;;15.52;61.90
67545;BME280;54380;47.770;11.150;2022-09-09T22:24:52;94891.75;;;15.55;62.06
67545;BME280;54380;47.770;11.150;2022-09-09T22:27:20;94890.66;;;15.62;61.74
67545;BME280;54380;47.770;11.150;2022-09-09T22:29:46;94882.09;;;15.70;61.65
67545;BME280;54380;47.770;11.150;2022-09-09T22:32:13;94883.16;;;15.69;61.58
67545;BME280;54380;47.770;11.150;2022-09-09T22:34:40;94891.66;;;15.66;61.54
67545;BME280;54380;47.770;11.150;2022-09-09T22:37:07;94893.28;;;15.67;61.63
67545;BME280;54380;47.770;11.150;2022-09-09T22:39:33;94891.94;;;15.69;61.19
67545;BME280;54380;47.770;11.150;2022-09-09T22:42:01;94895.09;;;15.71;61.60
67545;BME280;54380;47.770;11.150;2022-09-09T22:44:30;94893.19;;;15.77;61.55
67545;BME280;54380;47.770;11.150;2022-09-09T22:46:57;94898.75;;;15.80;61.24
67545;BME280;54380;47.770;11.150;2022-09-09T22:49:24;94897.66;;;15.82;61.02
67545;BME280;54380;47.770;11.150;2022-09-09T22:51:51;94887.38;;;15.75;60.83
67545;BME280;54380;47.770;11.150;2022-09-09T22:54:18;94887.13;;;15.66;60.91
67545;BME280;54380;47.770;11.150;2022-09-09T22:56:47;94895.78;;;15.53;61.24
67545;BME280;54380;47.770;11.150;2022-09-09T22:59:15;94893.16;;;15.48;61.69
67545;BME280;54380;47.770;11.150;2022-09-09T23:01:42;94880.69;;;15.48;61.61
67545;BME280;54380;47.770;11.150;2022-09-09T23:04:09;94876.97;;;15.44;61.48
67545;BME280;54380;47.770;11.150;2022-09-09T23:06:36;94877.06;;;15.34;61.40
67545;BME280;54380;47.770;11.150;2022-09-09T23:09:06;94870.50;;;15.26;61.63
67545;BME280;54380;47.770;11.150;2022-09-09T23:11:35;94868.13;;;15.25;61.79
67545;BME280;54380;47.770;11.150;2022-09-09T23:14:04;94867.84;;;15.26;62.06
67545;BME280;54380;47.770;11.150;2022-09-09T23:16:35;94866.47;;;15.29;61.79
67545;BME280;54380;47.770;11.150;2022-09-09T23:19:04;94864.06;;;15.32;61.87
67545;BME280;54380;47.770;11.150;2022-09-09T23:21:36;94858.75;;;15.32;61.94
67545;BME280;54380;47.770;11.150;2022-09-09T23:24:04;94866.97;;;15.36;61.97
67545;BME280;54380;47.770;11.150;2022-09-09T23:26:32;94857.84;;;15.42;61.88
67545;BME280;54380;47.770;11.150;2022-09-09T23:28:59;94855.94;;;15.48;61.60
67545;BME280;54380;47.770;11.150;2022-09-09T23:31:30;94851.91;;;15.50;61.58
67545;BME280;54380;47.770;11.150;2022-09-09T23:34:00;94845.22;;;15.53;61.41
67545;BME280;54380;47.770;11.150;2022-09-09T23:36:27;94844.97;;;15.54;61.36
67545;BME280;54380;47.770;11.150;2022-09-09T23:38:57;94838.56;;;15.55;61.49
67545;BME280;54380;47.770;11.150;2022-09-09T23:41:24;94836.69;;;15.56;61.76
67545;BME280;54380;47.770;11.150;2022-09-09T23:43:52;94842.00;;;15.56;61.61
67545;BME280;54380;47.770;11.150;2022-09-09T23:46:20;94845.22;;;15.53;61.32
67545;BME280;54380;47.770;11.150;2022-09-09T23:48:48;94848.97;;;15.52;61.16
67545;BME280;54380;47.770;11.150;2022-09-09T23:51:20;94848.72;;;15.53;61.57
67545;BME280;54380;47.770;11.150;2022-09-09T23:53:51;94843.88;;;15.55;61.55
67545;BME280;54380;47.770;11.150;2022-09-09T23:56:20;94847.31;;;15.56;61.14
67545;BME280;54380;47.770;11.150;2022-09-09T23:58:47;94850.81;;;15.56;61.13
